sensor_id;sensor_type;location;lat;lon;timestamp;temperature;humidity
6373;DHT22;3219;51.362;7.074;2023-07-31T00:00:47;16.50;99.90
6373;DHT22;3219;51.362;7.074;2023-07-31T00:03:14;16.50;99.90
6373;DHT22;3219;51.362;7.074;2023-07-31T00:05:41;16.50;99.90
6373;DHT22;3219;51.362;7.074;2023-07-31T00:08:07;16.50;99.90
6373;DHT22;3219;51.362;7.074;2023-07-31T00:10:34;16.60;99.90
6373;DHT22;3219;51.362;7.074;2023-07-31T00:13:02;16.60;99.90
6373;DHT22;3219;51.362;7.074;2023-07-31T00:15:29;16.60;99.90
6373;DHT22;3219;51.362;7.074;2023-07-31T00:17:56;16.60;99.90
6373;DHT22;3219;51.362;7.074;2023-07-31T00:20:23;16.60;99.90
6373;DHT22;3219;51.362;7.074;2023-07-31T00:22:50;16.50;99.90
6373;DHT22;3219;51.362;7.074;2023-07-31T00:25:17;16.50;99.90
6373;DHT22;3219;51.362;7.074;2023-07-31T00:27:44;16.50;99.90
6373;DHT22;3219;51.362;7.074;2023-07-31T00:30:12;16.50;99.90
6373;DHT22;3219;51.362;7.074;2023-07-31T00:32:39;16.50;99.90
6373;DHT22;3219;51.362;7.074;2023-07-31T00:35:06;16.50;99.90
6373;DHT22;3219;51.362;7.074;2023-07-31T00:37:33;16.50;99.90
6373;DHT22;3219;51.362;7.074;2023-07-31T00:40:00;16.50;99.90
6373;DHT22;3219;51.362;7.074;2023-07-31T00:42:29;16.50;99.90
6373;DHT22;3219;51.362;7.074;2023-07-31T00:44:55;16.50;99.90
6373;DHT22;3219;51.362;7.074;2023-07-31T00:47:24;16.50;99.90
6373;DHT22;3219;51.362;7.074;2023-07-31T00:49:51;16.50;99.90
6373;DHT22;3219;51.362;7.074;2023-07-31T00:52:18;16.50;99.90
6373;DHT22;3219;51.362;7.074;2023-07-31T00:54:45;16.50;99.90
6373;DHT22;3219;51.362;7.074;2023-07-31T00:57:12;16.50;99.90
6373;DHT22;3219;51.362;7.074;2023-07-31T00:59:39;16.50;99.90
6373;DHT22;3219;51.362;7.074;2023-07-31T01:02:06;16.50;99.90
6373;DHT22;3219;51.362;7.074;2023-07-31T01:04:34;16.50;99.90
6373;DHT22;3219;51.362;7.074;2023-07-31T01:07:06;16.50;99.90
6373;DHT22;3219;51.362;7.074;2023-07-31T01:09:44;16.50;99.90
6373;DHT22;3219;51.362;7.074;2023-07-31T01:12:15;16.50;99.90
6373;DHT22;3219;51.362;7.074;2023-07-31T01:14:51;16.60;99.90
6373;DHT22;3219;51.362;7.074;2023-07-31T01:17:18;16.60;99.90
6373;DHT22;3219;51.362;7.074;2023-07-31T01:19:47;16.60;99.90
6373;DHT22;3219;51.362;7.074;2023-07-31T01:22:34;16.60;99.90
6373;DHT22;3219;51.362;7.074;2023-07-31T01:25:16;16.60;99.90
6373;DHT22;3219;51.362;7.074;2023-07-31T01:27:55;16.50;99.90
6373;DHT22;3219;51.362;7.074;2023-07-31T01:30:28;16.50;99.90
6373;DHT22;3219;51.362;7.074;2023-07-31T01:32:59;16.50;99.90
6373;DHT22;3219;51.362;7.074;2023-07-31T01:35:28;16.50;99.90
6373;DHT22;3219;51.362;7.074;2023-07-31T01:37:55;16.50;99.90
6373;DHT22;3219;51.362;7.074;2023-07-31T01:40:21;16.50;99.90
6373;DHT22;3219;51.362;7.074;2023-07-31T01:42:49;16.50;99.90
6373;DHT22;3219;51.362;7.074;2023-07-31T01:45:16;16.50;99.90
6373;DHT22;3219;51.362;7.074;2023-07-31T01:47:43;16.50;99.90
6373;DHT22;3219;51.362;7.074;2023-07-31T01:50:11;16.50;99.90
6373;DHT22;3219;51.362;7.074;2023-07-31T01:52:37;16.50;99.90
6373;DHT22;3219;51.362;7.074;2023-07-31T01:55:04;16.50;99.90
6373;DHT22;3219;51.362;7.074;2023-07-31T01:57:31;16.50;99.90
6373;DHT22;3219;51.362;7.074;2023-07-31T01:59:59;16.50;99.90
6373;DHT22;3219;51.362;7.074;2023-07-31T02:02:26;16.50;99.90
6373;DHT22;3219;51.362;7.074;2023-07-31T02:04:53;16.40;99.90
6373;DHT22;3219;51.362;7.074;2023-07-31T02:07:20;16.50;99.90
6373;DHT22;3219;51.362;7.074;2023-07-31T02:09:47;16.50;99.90
6373;DHT22;3219;51.362;7.074;2023-07-31T02:12:13;16.50;99.90
6373;DHT22;3219;51.362;7.074;2023-07-31T02:14:40;16.50;99.90
6373;DHT22;3219;51.362;7.074;2023-07-31T02:17:09;16.50;99.90
6373;DHT22;3219;51.362;7.074;2023-07-31T02:19:35;16.50;99.90
6373;DHT22;3219;51.362;7.074;2023-07-31T02:22:02;16.50;99.90
6373;DHT22;3219;51.362;7.074;2023-07-31T02:24:29;16.50;99.90
6373;DHT22;3219;51.362;7.074;2023-07-31T02:26:57;16.40;99.90
6373;DHT22;3219;51.362;7.074;2023-07-31T02:29:24;16.40;99.90
6373;DHT22;3219;51.362;7.074;2023-07-31T02:31:50;16.50;99.90
6373;DHT22;3219;51.362;7.074;2023-07-31T02:34:18;16.40;99.90
6373;DHT22;3219;51.362;7.074;2023-07-31T02:36:45;16.40;99.90
6373;DHT22;3219;51.362;7.074;2023-07-31T02:39:12;16.40;99.90
6373;DHT22;3219;51.362;7.074;2023-07-31T02:41:39;16.40;99.90
6373;DHT22;3219;51.362;7.074;2023-07-31T02:44:05;16.40;99.90
6373;DHT22;3219;51.362;7.074;2023-07-31T02:46:32;16.40;99.90
6373;DHT22;3219;51.362;7.074;2023-07-31T02:48:59;16.40;99.90
6373;DHT22;3219;51.362;7.074;2023-07-31T02:51:27;16.40;99.90
6373;DHT22;3219;51.362;7.074;2023-07-31T02:53:54;16.40;99.90
6373;DHT22;3219;51.362;7.074;2023-07-31T02:56:20;16.50;99.90
6373;DHT22;3219;51.362;7.074;2023-07-31T02:58:47;16.40;99.90
6373;DHT22;3219;51.362;7.074;2023-07-31T03:01:14;16.40;99.90
6373;DHT22;3219;51.362;7.074;2023-07-31T03:03:41;16.40;99.90
6373;DHT22;3219;51.362;7.074;2023-07-31T03:06:08;16.40;99.90
6373;DHT22;3219;51.362;7.074;2023-07-31T03:08:36;16.40;99.90
6373;DHT22;3219;51.362;7.074;2023-07-31T03:11:02;16.40;99.90
6373;DHT22;3219;51.362;7.074;2023-07-31T03:13:29;16.50;99.90
6373;DHT22;3219;51.362;7.074;2023-07-31T03:15:56;16.50;99.90
6373;DHT22;3219;51.362;7.074;2023-07-31T03:18:23;16.50;99.90
6373;DHT22;3219;51.362;7.074;2023-07-31T03:20:49;16.50;99.90
6373;DHT22;3219;51.362;7.074;2023-07-31T03:23:16;16.50;99.90
6373;DHT22;3219;51.362;7.074;2023-07-31T03:25:56;16.50;99.90
6373;DHT22;3219;51.362;7.074;2023-07-31T03:28:24;16.50;99.90
6373;DHT22;3219;51.362;7.074;2023-07-31T03:30:51;16.50;99.90
6373;DHT22;3219;51.362;7.074;2023-07-31T03:33:18;16.50;99.90
6373;DHT22;3219;51.362;7.074;2023-07-31T03:35:45;16.50;99.90
6373;DHT22;3219;51.362;7.074;2023-07-31T03:38:11;16.50;99.90
6373;DHT22;3219;51.362;7.074;2023-07-31T03:40:38;16.50;99.90
6373;DHT22;3219;51.362;7.074;2023-07-31T03:43:06;16.50;99.90
6373;DHT22;3219;51.362;7.074;2023-07-31T03:45:33;16.50;99.90
6373;DHT22;3219;51.362;7.074;2023-07-31T03:48:00;16.50;99.90
6373;DHT22;3219;51.362;7.074;2023-07-31T03:50:27;16.50;99.90
6373;DHT22;3219;51.362;7.074;2023-07-31T03:52:54;16.50;99.90
6373;DHT22;3219;51.362;7.074;2023-07-31T03:55:20;16.50;99.90
6373;DHT22;3219;51.362;7.074;2023-07-31T03:57:48;16.50;99.90
6373;DHT22;3219;51.362;7.074;2023-07-31T04:00:16;16.50;99.90
6373;DHT22;3219;51.362;7.074;2023-07-31T04:02:43;16.50;99.90
6373;DHT22;3219;51.362;7.074;2023-07-31T04:05:10;16.60;99.90
6373;DHT22;3219;51.362;7.074;2023-07-31T04:07:37;16.60;99.90
6373;DHT22;3219;51.362;7.074;2023-07-31T04:10:04;16.60;99.90
6373;DHT22;3219;51.362;7.074;2023-07-31T04:12:31;16.60;99.90
6373;DHT22;3219;51.362;7.074;2023-07-31T04:14:58;16.60;99.90
6373;DHT22;3219;51.362;7.074;2023-07-31T04:17:26;16.70;99.90
6373;DHT22;3219;51.362;7.074;2023-07-31T04:19:52;16.70;99.90
6373;DHT22;3219;51.362;7.074;2023-07-31T04:22:19;16.70;99.90
6373;DHT22;3219;51.362;7.074;2023-07-31T04:24:46;16.70;99.90
6373;DHT22;3219;51.362;7.074;2023-07-31T04:27:13;16.60;99.90
6373;DHT22;3219;51.362;7.074;2023-07-31T04:29:40;16.70;99.90
6373;DHT22;3219;51.362;7.074;2023-07-31T04:32:08;16.70;99.90
6373;DHT22;3219;51.362;7.074;2023-07-31T04:34:36;16.70;99.90
6373;DHT22;3219;51.362;7.074;2023-07-31T04:37:03;16.70;99.90
6373;DHT22;3219;51.362;7.074;2023-07-31T04:39:30;16.70;99.90
6373;DHT22;3219;51.362;7.074;2023-07-31T04:41:56;16.70;99.90
6373;DHT22;3219;51.362;7.074;2023-07-31T04:44:23;16.70;99.90
6373;DHT22;3219;51.362;7.074;2023-07-31T04:46:50;16.70;99.90
6373;DHT22;3219;51.362;7.074;2023-07-31T04:49:16;16.70;99.90
6373;DHT22;3219;51.362;7.074;2023-07-31T04:51:46;16.70;99.90
6373;DHT22;3219;51.362;7.074;2023-07-31T04:54:12;16.70;99.90
6373;DHT22;3219;51.362;7.074;2023-07-31T04:56:40;16.70;99.90
6373;DHT22;3219;51.362;7.074;2023-07-31T04:59:07;16.70;99.90
6373;DHT22;3219;51.362;7.074;2023-07-31T05:01:33;16.70;99.90
6373;DHT22;3219;51.362;7.074;2023-07-31T05:04:00;16.70;99.90
6373;DHT22;3219;51.362;7.074;2023-07-31T05:06:27;16.70;99.90
6373;DHT22;3219;51.362;7.074;2023-07-31T05:08:55;16.70;99.90
6373;DHT22;3219;51.362;7.074;2023-07-31T05:11:22;16.70;99.90
6373;DHT22;3219;51.362;7.074;2023-07-31T05:13:49;16.80;99.90
6373;DHT22;3219;51.362;7.074;2023-07-31T05:16:15;16.80;99.90
6373;DHT22;3219;51.362;7.074;2023-07-31T05:18:42;16.80;99.90
6373;DHT22;3219;51.362;7.074;2023-07-31T05:21:08;16.80;99.90
6373;DHT22;3219;51.362;7.074;2023-07-31T05:23:35;16.90;99.90
6373;DHT22;3219;51.362;7.074;2023-07-31T05:26:04;16.90;99.90
6373;DHT22;3219;51.362;7.074;2023-07-31T05:28:30;16.90;99.90
6373;DHT22;3219;51.362;7.074;2023-07-31T05:30:58;16.80;99.90
6373;DHT22;3219;51.362;7.074;2023-07-31T05:33:25;16.90;99.90
6373;DHT22;3219;51.362;7.074;2023-07-31T05:35:51;16.90;99.90
6373;DHT22;3219;51.362;7.074;2023-07-31T05:38:18;16.90;99.90
6373;DHT22;3219;51.362;7.074;2023-07-31T05:40:44;16.90;99.90
6373;DHT22;3219;51.362;7.074;2023-07-31T05:43:12;16.80;99.90
6373;DHT22;3219;51.362;7.074;2023-07-31T05:45:39;16.90;99.90
6373;DHT22;3219;51.362;7.074;2023-07-31T05:48:06;16.90;99.90
6373;DHT22;3219;51.362;7.074;2023-07-31T05:50:32;16.80;99.90
6373;DHT22;3219;51.362;7.074;2023-07-31T05:52:59;16.80;99.90
6373;DHT22;3219;51.362;7.074;2023-07-31T05:55:26;16.80;99.90
6373;DHT22;3219;51.362;7.074;2023-07-31T05:57:54;16.80;99.90
6373;DHT22;3219;51.362;7.074;2023-07-31T06:00:22;16.90;99.90
6373;DHT22;3219;51.362;7.074;2023-07-31T06:02:49;16.90;99.90
6373;DHT22;3219;51.362;7.074;2023-07-31T06:05:15;16.90;99.90
6373;DHT22;3219;51.362;7.074;2023-07-31T06:07:42;16.90;99.90
6373;DHT22;3219;51.362;7.074;2023-07-31T06:10:09;17.00;99.90
6373;DHT22;3219;51.362;7.074;2023-07-31T06:12:35;16.90;99.90
6373;DHT22;3219;51.362;7.074;2023-07-31T06:15:02;17.00;99.90
6373;DHT22;3219;51.362;7.074;2023-07-31T06:17:31;17.00;99.90
6373;DHT22;3219;51.362;7.074;2023-07-31T06:19:57;17.00;99.90
6373;DHT22;3219;51.362;7.074;2023-07-31T06:22:24;17.00;99.90
6373;DHT22;3219;51.362;7.074;2023-07-31T06:24:51;17.00;99.90
6373;DHT22;3219;51.362;7.074;2023-07-31T06:27:17;17.10;99.90
6373;DHT22;3219;51.362;7.074;2023-07-31T06:29:44;17.10;99.90
6373;DHT22;3219;51.362;7.074;2023-07-31T06:32:10;17.00;99.90
6373;DHT22;3219;51.362;7.074;2023-07-31T06:34:38;17.00;99.90
6373;DHT22;3219;51.362;7.074;2023-07-31T06:37:05;17.00;99.90
6373;DHT22;3219;51.362;7.074;2023-07-31T06:39:32;17.00;99.90
6373;DHT22;3219;51.362;7.074;2023-07-31T06:41:58;17.10;99.90
6373;DHT22;3219;51.362;7.074;2023-07-31T06:44:25;17.00;99.90
6373;DHT22;3219;51.362;7.074;2023-07-31T06:46:51;17.00;99.90
6373;DHT22;3219;51.362;7.074;2023-07-31T06:49:18;17.00;99.90
6373;DHT22;3219;51.362;7.074;2023-07-31T06:51:46;17.00;99.90
6373;DHT22;3219;51.362;7.074;2023-07-31T06:54:12;16.90;99.90
6373;DHT22;3219;51.362;7.074;2023-07-31T06:56:39;16.90;99.90
6373;DHT22;3219;51.362;7.074;2023-07-31T06:59:06;16.90;99.90
6373;DHT22;3219;51.362;7.074;2023-07-31T07:01:32;16.90;99.90
6373;DHT22;3219;51.362;7.074;2023-07-31T07:03:59;16.90;99.90
6373;DHT22;3219;51.362;7.074;2023-07-31T07:06:25;16.80;99.90
6373;DHT22;3219;51.362;7.074;2023-07-31T07:08:53;16.90;99.90
6373;DHT22;3219;51.362;7.074;2023-07-31T07:11:20;16.80;99.90
6373;DHT22;3219;51.362;7.074;2023-07-31T07:13:46;16.80;99.90
6373;DHT22;3219;51.362;7.074;2023-07-31T07:16:13;16.90;99.90
6373;DHT22;3219;51.362;7.074;2023-07-31T07:18:40;16.90;99.90
6373;DHT22;3219;51.362;7.074;2023-07-31T07:21:06;16.90;99.90
6373;DHT22;3219;51.362;7.074;2023-07-31T07:23:33;16.90;99.90
6373;DHT22;3219;51.362;7.074;2023-07-31T07:26:02;17.00;99.90
6373;DHT22;3219;51.362;7.074;2023-07-31T07:28:28;17.00;99.90
6373;DHT22;3219;51.362;7.074;2023-07-31T07:30:55;17.00;99.90
6373;DHT22;3219;51.362;7.074;2023-07-31T07:33:21;17.00;99.90
6373;DHT22;3219;51.362;7.074;2023-07-31T07:35:48;17.00;99.90
6373;DHT22;3219;51.362;7.074;2023-07-31T07:38:15;16.90;99.90
6373;DHT22;3219;51.362;7.074;2023-07-31T07:40:41;16.90;99.90
6373;DHT22;3219;51.362;7.074;2023-07-31T07:43:09;16.90;99.90
6373;DHT22;3219;51.362;7.074;2023-07-31T07:45:36;16.90;99.90
6373;DHT22;3219;51.362;7.074;2023-07-31T07:48:03;16.90;99.90
6373;DHT22;3219;51.362;7.074;2023-07-31T07:50:30;16.90;99.90
6373;DHT22;3219;51.362;7.074;2023-07-31T07:52:56;16.90;99.90
6373;DHT22;3219;51.362;7.074;2023-07-31T07:55:23;16.90;99.90
6373;DHT22;3219;51.362;7.074;2023-07-31T07:57:49;16.90;99.90
6373;DHT22;3219;51.362;7.074;2023-07-31T08:00:17;16.90;99.90
6373;DHT22;3219;51.362;7.074;2023-07-31T08:02:44;16.90;99.90
6373;DHT22;3219;51.362;7.074;2023-07-31T08:05:11;16.90;99.90
6373;DHT22;3219;51.362;7.074;2023-07-31T08:07:37;16.90;99.90
6373;DHT22;3219;51.362;7.074;2023-07-31T08:10:04;16.90;99.90
6373;DHT22;3219;51.362;7.074;2023-07-31T08:12:31;16.90;99.90
6373;DHT22;3219;51.362;7.074;2023-07-31T08:14:57;16.90;99.90
6373;DHT22;3219;51.362;7.074;2023-07-31T08:17:26;17.00;99.90
6373;DHT22;3219;51.362;7.074;2023-07-31T08:19:53;17.00;99.90
6373;DHT22;3219;51.362;7.074;2023-07-31T08:22:21;17.10;99.90
6373;DHT22;3219;51.362;7.074;2023-07-31T08:24:48;17.10;99.90
6373;DHT22;3219;51.362;7.074;2023-07-31T08:27:15;17.10;99.90
6373;DHT22;3219;51.362;7.074;2023-07-31T08:29:41;17.10;99.90
6373;DHT22;3219;51.362;7.074;2023-07-31T08:32:08;17.20;99.90
6373;DHT22;3219;51.362;7.074;2023-07-31T08:34:36;17.20;99.90
6373;DHT22;3219;51.362;7.074;2023-07-31T08:37:02;17.30;99.90
6373;DHT22;3219;51.362;7.074;2023-07-31T08:39:29;17.20;99.90
6373;DHT22;3219;51.362;7.074;2023-07-31T08:41:57;17.20;99.90
6373;DHT22;3219;51.362;7.074;2023-07-31T08:44:24;17.20;99.90
6373;DHT22;3219;51.362;7.074;2023-07-31T08:46:50;17.20;99.90
6373;DHT22;3219;51.362;7.074;2023-07-31T08:49:17;17.20;99.90
6373;DHT22;3219;51.362;7.074;2023-07-31T08:51:46;17.10;99.90
6373;DHT22;3219;51.362;7.074;2023-07-31T08:54:16;17.10;99.90
6373;DHT22;3219;51.362;7.074;2023-07-31T08:56:42;17.10;99.90
6373;DHT22;3219;51.362;7.074;2023-07-31T08:59:09;17.10;99.90
6373;DHT22;3219;51.362;7.074;2023-07-31T09:01:38;17.10;99.90
6373;DHT22;3219;51.362;7.074;2023-07-31T09:04:08;17.10;99.90
6373;DHT22;3219;51.362;7.074;2023-07-31T09:06:36;17.10;99.90
6373;DHT22;3219;51.362;7.074;2023-07-31T09:09:04;17.10;99.90
6373;DHT22;3219;51.362;7.074;2023-07-31T09:11:31;17.10;99.90
6373;DHT22;3219;51.362;7.074;2023-07-31T09:13:58;17.10;99.90
6373;DHT22;3219;51.362;7.074;2023-07-31T09:16:27;17.10;99.90
6373;DHT22;3219;51.362;7.074;2023-07-31T09:18:55;17.20;99.90
6373;DHT22;3219;51.362;7.074;2023-07-31T09:21:23;17.20;99.90
6373;DHT22;3219;51.362;7.074;2023-07-31T09:23:51;17.20;99.90
6373;DHT22;3219;51.362;7.074;2023-07-31T09:26:29;17.20;99.90
6373;DHT22;3219;51.362;7.074;2023-07-31T09:28:56;17.20;99.90
6373;DHT22;3219;51.362;7.074;2023-07-31T09:31:31;17.20;99.90
6373;DHT22;3219;51.362;7.074;2023-07-31T09:33:58;17.20;99.90
6373;DHT22;3219;51.362;7.074;2023-07-31T09:36:28;17.20;99.90
6373;DHT22;3219;51.362;7.074;2023-07-31T09:38:55;17.20;99.90
6373;DHT22;3219;51.362;7.074;2023-07-31T09:41:21;17.30;99.90
6373;DHT22;3219;51.362;7.074;2023-07-31T09:43:54;17.30;99.90
6373;DHT22;3219;51.362;7.074;2023-07-31T09:46:21;17.30;99.90
6373;DHT22;3219;51.362;7.074;2023-07-31T09:48:48;17.40;99.90
6373;DHT22;3219;51.362;7.074;2023-07-31T09:51:14;17.30;99.90
6373;DHT22;3219;51.362;7.074;2023-07-31T09:53:41;17.40;99.90
6373;DHT22;3219;51.362;7.074;2023-07-31T09:56:08;17.40;99.90
6373;DHT22;3219;51.362;7.074;2023-07-31T09:58:34;17.40;99.90
6373;DHT22;3219;51.362;7.074;2023-07-31T10:01:02;17.40;99.90
6373;DHT22;3219;51.362;7.074;2023-07-31T10:03:29;17.40;99.90
6373;DHT22;3219;51.362;7.074;2023-07-31T10:05:58;17.50;99.90
6373;DHT22;3219;51.362;7.074;2023-07-31T10:08:26;17.50;99.90
6373;DHT22;3219;51.362;7.074;2023-07-31T10:10:54;17.50;99.90
6373;DHT22;3219;51.362;7.074;2023-07-31T10:13:21;17.50;99.90
6373;DHT22;3219;51.362;7.074;2023-07-31T10:15:48;17.60;99.90
6373;DHT22;3219;51.362;7.074;2023-07-31T10:18:16;17.60;99.90
6373;DHT22;3219;51.362;7.074;2023-07-31T10:20:43;17.60;99.90
6373;DHT22;3219;51.362;7.074;2023-07-31T10:23:10;17.60;99.90
6373;DHT22;3219;51.362;7.074;2023-07-31T10:25:37;17.60;99.90
6373;DHT22;3219;51.362;7.074;2023-07-31T10:28:05;17.60;99.90
6373;DHT22;3219;51.362;7.074;2023-07-31T10:30:32;17.50;99.90
6373;DHT22;3219;51.362;7.074;2023-07-31T10:33:00;17.50;99.90
6373;DHT22;3219;51.362;7.074;2023-07-31T10:35:28;17.50;99.90
6373;DHT22;3219;51.362;7.074;2023-07-31T10:37:55;17.40;99.90
6373;DHT22;3219;51.362;7.074;2023-07-31T10:40:23;17.40;99.90
6373;DHT22;3219;51.362;7.074;2023-07-31T10:42:51;17.40;99.90
6373;DHT22;3219;51.362;7.074;2023-07-31T10:45:24;17.40;99.90
6373;DHT22;3219;51.362;7.074;2023-07-31T10:47:57;17.40;99.90
6373;DHT22;3219;51.362;7.074;2023-07-31T10:50:24;17.30;99.90
6373;DHT22;3219;51.362;7.074;2023-07-31T10:52:53;17.30;99.90
6373;DHT22;3219;51.362;7.074;2023-07-31T10:55:27;17.40;99.90
6373;DHT22;3219;51.362;7.074;2023-07-31T10:57:54;17.30;99.90
6373;DHT22;3219;51.362;7.074;2023-07-31T11:00:21;17.30;99.90
6373;DHT22;3219;51.362;7.074;2023-07-31T11:02:58;17.30;99.90
6373;DHT22;3219;51.362;7.074;2023-07-31T11:05:41;17.40;99.90
6373;DHT22;3219;51.362;7.074;2023-07-31T11:08:13;17.50;99.90
6373;DHT22;3219;51.362;7.074;2023-07-31T11:10:40;17.50;99.90
6373;DHT22;3219;51.362;7.074;2023-07-31T11:13:06;17.60;99.90
6373;DHT22;3219;51.362;7.074;2023-07-31T11:15:33;17.60;99.90
6373;DHT22;3219;51.362;7.074;2023-07-31T11:18:00;17.60;99.90
6373;DHT22;3219;51.362;7.074;2023-07-31T11:20:29;17.70;99.90
6373;DHT22;3219;51.362;7.074;2023-07-31T11:22:57;17.70;99.90
6373;DHT22;3219;51.362;7.074;2023-07-31T11:25:25;17.70;99.90
6373;DHT22;3219;51.362;7.074;2023-07-31T11:27:52;17.70;99.90
6373;DHT22;3219;51.362;7.074;2023-07-31T11:30:19;17.70;99.90
6373;DHT22;3219;51.362;7.074;2023-07-31T11:32:46;17.70;99.90
6373;DHT22;3219;51.362;7.074;2023-07-31T11:35:13;17.70;99.90
6373;DHT22;3219;51.362;7.074;2023-07-31T11:37:40;17.80;99.90
6373;DHT22;3219;51.362;7.074;2023-07-31T11:40:07;17.80;99.90
6373;DHT22;3219;51.362;7.074;2023-07-31T11:42:35;17.80;99.90
6373;DHT22;3219;51.362;7.074;2023-07-31T11:45:02;17.80;99.90
6373;DHT22;3219;51.362;7.074;2023-07-31T11:47:29;17.90;99.90
6373;DHT22;3219;51.362;7.074;2023-07-31T11:49:56;17.90;99.90
6373;DHT22;3219;51.362;7.074;2023-07-31T11:52:23;18.00;99.90
6373;DHT22;3219;51.362;7.074;2023-07-31T11:54:50;18.00;99.90
6373;DHT22;3219;51.362;7.074;2023-07-31T11:57:17;18.00;99.90
6373;DHT22;3219;51.362;7.074;2023-07-31T11:59:46;18.10;99.90
6373;DHT22;3219;51.362;7.074;2023-07-31T12:02:13;18.10;99.90
6373;DHT22;3219;51.362;7.074;2023-07-31T12:04:39;18.20;99.90
6373;DHT22;3219;51.362;7.074;2023-07-31T12:07:06;18.20;99.90
6373;DHT22;3219;51.362;7.074;2023-07-31T12:09:33;18.20;99.90
6373;DHT22;3219;51.362;7.074;2023-07-31T12:11:59;18.30;99.90
6373;DHT22;3219;51.362;7.074;2023-07-31T12:14:27;18.30;99.90
6373;DHT22;3219;51.362;7.074;2023-07-31T12:16:56;18.30;99.90
6373;DHT22;3219;51.362;7.074;2023-07-31T12:19:23;18.30;99.90
6373;DHT22;3219;51.362;7.074;2023-07-31T12:21:53;18.30;99.90
6373;DHT22;3219;51.362;7.074;2023-07-31T12:24:19;18.20;99.90
6373;DHT22;3219;51.362;7.074;2023-07-31T12:26:46;18.20;99.90
6373;DHT22;3219;51.362;7.074;2023-07-31T12:29:13;18.10;99.90
6373;DHT22;3219;51.362;7.074;2023-07-31T12:31:40;18.00;99.90
6373;DHT22;3219;51.362;7.074;2023-07-31T12:34:15;18.00;99.90
6373;DHT22;3219;51.362;7.074;2023-07-31T12:36:43;18.00;99.90
6373;DHT22;3219;51.362;7.074;2023-07-31T12:42:13;17.90;99.90
6373;DHT22;3219;51.362;7.074;2023-07-31T12:44:39;18.00;99.90
6373;DHT22;3219;51.362;7.074;2023-07-31T12:47:06;18.10;99.90
6373;DHT22;3219;51.362;7.074;2023-07-31T12:49:33;18.40;99.90
6373;DHT22;3219;51.362;7.074;2023-07-31T12:52:00;18.50;99.90
6373;DHT22;3219;51.362;7.074;2023-07-31T12:54:26;18.50;99.90
6373;DHT22;3219;51.362;7.074;2023-07-31T12:56:53;18.50;99.90
6373;DHT22;3219;51.362;7.074;2023-07-31T12:59:21;18.50;99.90
6373;DHT22;3219;51.362;7.074;2023-07-31T13:01:48;18.40;99.90
6373;DHT22;3219;51.362;7.074;2023-07-31T13:04:15;18.40;99.90
6373;DHT22;3219;51.362;7.074;2023-07-31T13:06:42;18.30;99.90
6373;DHT22;3219;51.362;7.074;2023-07-31T13:09:08;18.30;99.90
6373;DHT22;3219;51.362;7.074;2023-07-31T13:11:36;18.20;99.90
6373;DHT22;3219;51.362;7.074;2023-07-31T13:14:03;18.10;99.90
6373;DHT22;3219;51.362;7.074;2023-07-31T13:16:31;18.10;99.90
6373;DHT22;3219;51.362;7.074;2023-07-31T13:18:58;18.00;99.90
6373;DHT22;3219;51.362;7.074;2023-07-31T13:21:24;18.00;99.90
6373;DHT22;3219;51.362;7.074;2023-07-31T13:23:51;17.90;99.90
6373;DHT22;3219;51.362;7.074;2023-07-31T13:26:18;17.90;99.90
6373;DHT22;3219;51.362;7.074;2023-07-31T13:28:45;17.90;99.90
6373;DHT22;3219;51.362;7.074;2023-07-31T13:31:11;17.80;99.90
6373;DHT22;3219;51.362;7.074;2023-07-31T13:33:39;17.80;99.90
6373;DHT22;3219;51.362;7.074;2023-07-31T13:36:06;17.80;99.90
6373;DHT22;3219;51.362;7.074;2023-07-31T13:38:33;17.80;99.90
6373;DHT22;3219;51.362;7.074;2023-07-31T13:41:00;17.80;99.90
6373;DHT22;3219;51.362;7.074;2023-07-31T13:43:26;17.80;99.90
6373;DHT22;3219;51.362;7.074;2023-07-31T13:45:53;17.90;99.90
6373;DHT22;3219;51.362;7.074;2023-07-31T13:48:20;18.00;99.90
6373;DHT22;3219;51.362;7.074;2023-07-31T13:50:48;18.00;99.90
6373;DHT22;3219;51.362;7.074;2023-07-31T13:53:15;18.10;99.90
6373;DHT22;3219;51.362;7.074;2023-07-31T13:55:41;18.20;99.90
6373;DHT22;3219;51.362;7.074;2023-07-31T13:58:10;18.30;99.90
6373;DHT22;3219;51.362;7.074;2023-07-31T14:00:37;18.30;99.90
6373;DHT22;3219;51.362;7.074;2023-07-31T14:03:04;18.30;99.90
6373;DHT22;3219;51.362;7.074;2023-07-31T14:05:31;18.30;99.90
6373;DHT22;3219;51.362;7.074;2023-07-31T14:08:00;18.30;99.90
6373;DHT22;3219;51.362;7.074;2023-07-31T14:10:27;18.30;99.90
6373;DHT22;3219;51.362;7.074;2023-07-31T14:12:53;18.40;99.90
6373;DHT22;3219;51.362;7.074;2023-07-31T14:15:20;18.50;99.90
6373;DHT22;3219;51.362;7.074;2023-07-31T14:17:47;18.70;99.90
6373;DHT22;3219;51.362;7.074;2023-07-31T14:20:14;18.80;99.90
6373;DHT22;3219;51.362;7.074;2023-07-31T14:22:41;18.90;99.90
6373;DHT22;3219;51.362;7.074;2023-07-31T14:25:09;19.00;99.90
6373;DHT22;3219;51.362;7.074;2023-07-31T14:27:36;19.10;99.90
6373;DHT22;3219;51.362;7.074;2023-07-31T14:30:04;19.10;99.90
6373;DHT22;3219;51.362;7.074;2023-07-31T14:32:31;19.00;99.90
6373;DHT22;3219;51.362;7.074;2023-07-31T14:34:57;18.90;99.90
6373;DHT22;3219;51.362;7.074;2023-07-31T14:37:26;18.80;99.90
6373;DHT22;3219;51.362;7.074;2023-07-31T14:39:52;18.70;99.90
6373;DHT22;3219;51.362;7.074;2023-07-31T14:42:21;18.70;99.90
6373;DHT22;3219;51.362;7.074;2023-07-31T14:44:47;18.60;99.90
6373;DHT22;3219;51.362;7.074;2023-07-31T14:47:14;18.60;99.90
6373;DHT22;3219;51.362;7.074;2023-07-31T14:49:41;18.50;99.90
6373;DHT22;3219;51.362;7.074;2023-07-31T14:52:08;18.50;99.90
6373;DHT22;3219;51.362;7.074;2023-07-31T14:54:34;18.50;99.90
6373;DHT22;3219;51.362;7.074;2023-07-31T14:57:01;18.40;99.90
6373;DHT22;3219;51.362;7.074;2023-07-31T14:59:29;18.40;99.90
6373;DHT22;3219;51.362;7.074;2023-07-31T15:01:56;18.30;99.90
6373;DHT22;3219;51.362;7.074;2023-07-31T15:04:23;18.30;99.90
6373;DHT22;3219;51.362;7.074;2023-07-31T15:06:50;18.30;99.90
6373;DHT22;3219;51.362;7.074;2023-07-31T15:09:17;18.20;99.90
6373;DHT22;3219;51.362;7.074;2023-07-31T15:11:43;18.20;99.90
6373;DHT22;3219;51.362;7.074;2023-07-31T15:14:10;18.20;99.90
6373;DHT22;3219;51.362;7.074;2023-07-31T15:16:38;18.20;99.90
6373;DHT22;3219;51.362;7.074;2023-07-31T15:19:05;18.20;99.90
6373;DHT22;3219;51.362;7.074;2023-07-31T15:21:32;18.30;99.90
6373;DHT22;3219;51.362;7.074;2023-07-31T15:23:59;18.30;99.90
6373;DHT22;3219;51.362;7.074;2023-07-31T15:26:25;18.30;99.90
6373;DHT22;3219;51.362;7.074;2023-07-31T15:29:00;18.30;99.90
6373;DHT22;3219;51.362;7.074;2023-07-31T15:31:28;18.30;99.90
6373;DHT22;3219;51.362;7.074;2023-07-31T15:33:56;18.30;99.90
6373;DHT22;3219;51.362;7.074;2023-07-31T15:36:23;18.30;99.90
6373;DHT22;3219;51.362;7.074;2023-07-31T15:38:49;18.30;99.90
6373;DHT22;3219;51.362;7.074;2023-07-31T15:41:17;18.30;99.90
6373;DHT22;3219;51.362;7.074;2023-07-31T15:43:44;18.30;99.90
6373;DHT22;3219;51.362;7.074;2023-07-31T15:46:13;18.30;99.90
6373;DHT22;3219;51.362;7.074;2023-07-31T15:48:39;18.30;99.90
6373;DHT22;3219;51.362;7.074;2023-07-31T15:51:08;18.30;99.90
6373;DHT22;3219;51.362;7.074;2023-07-31T15:53:34;18.30;99.90
6373;DHT22;3219;51.362;7.074;2023-07-31T15:56:01;18.30;99.90
6373;DHT22;3219;51.362;7.074;2023-07-31T15:58:28;18.30;99.90
6373;DHT22;3219;51.362;7.074;2023-07-31T16:00:55;18.40;99.90
6373;DHT22;3219;51.362;7.074;2023-07-31T16:03:21;18.30;99.90
6373;DHT22;3219;51.362;7.074;2023-07-31T16:05:48;18.40;99.90